createdAt,value
2017-08-26T00:00:56.075Z,6.80
2017-08-26T00:03:23.882Z,6.57
2017-08-26T00:05:51.518Z,7.03
2017-08-26T00:08:19.625Z,6.10
2017-08-26T00:10:47.371Z,6.40
2017-08-26T00:13:15.632Z,6.77
2017-08-26T00:15:43.277Z,6.67
2017-08-26T00:18:10.949Z,5.93
2017-08-26T00:20:38.670Z,7.03
2017-08-26T00:23:06.315Z,6.50
2017-08-26T00:25:34.164Z,6.20
2017-08-26T00:28:01.810Z,6.37
2017-08-26T00:30:29.864Z,6.83
2017-08-26T00:32:57.594Z,7.43
2017-08-26T00:35:25.255Z,8.07
2017-08-26T00:37:53.008Z,7.57
2017-08-26T00:40:20.753Z,7.30
2017-08-26T00:42:48.395Z,7.30
2017-08-26T00:45:16.042Z,8.00
2017-08-26T00:47:43.786Z,8.00
2017-08-26T00:50:11.534Z,7.60
2017-08-26T00:52:39.284Z,6.90
2017-08-26T00:55:07.108Z,6.80
2017-08-26T00:57:34.881Z,6.53
2017-08-26T01:00:02.524Z,7.40
2017-08-26T01:02:30.272Z,7.23
2017-08-26T01:04:58.019Z,8.20
2017-08-26T01:07:31.500Z,8.47
2017-08-26T01:09:59.248Z,7.93
2017-08-26T01:12:26.995Z,8.70
2017-08-26T01:14:54.817Z,7.50
2017-08-26T01:17:22.465Z,7.97
2017-08-26T01:19:50.142Z,7.60
2017-08-26T01:22:17.987Z,7.70
2017-08-26T01:24:45.627Z,7.37
2017-08-26T01:27:13.257Z,6.60
2017-08-26T01:29:40.947Z,6.83
2017-08-26T01:32:08.602Z,8.50
2017-08-26T01:34:36.312Z,7.77
2017-08-26T01:37:04.009Z,8.37
2017-08-26T01:39:31.704Z,8.57
2017-08-26T01:41:59.329Z,7.13
2017-08-26T01:44:27.114Z,9.03
2017-08-26T01:46:54.747Z,7.13
2017-08-26T01:49:22.488Z,7.33
2017-08-26T01:51:50.235Z,7.80
2017-08-26T01:54:17.862Z,6.33
2017-08-26T01:56:45.525Z,7.90
2017-08-26T01:59:13.374Z,7.47
2017-08-26T02:01:41.017Z,7.70
2017-08-26T02:04:08.666Z,5.93
2017-08-26T02:06:36.350Z,7.30
2017-08-26T02:09:04.163Z,7.50
2017-08-26T02:11:31.794Z,6.87
2017-08-26T02:13:59.557Z,6.23
2017-08-26T02:16:27.191Z,6.67
2017-08-26T02:18:54.814Z,6.60
2017-08-26T02:21:22.577Z,6.20
2017-08-26T02:23:50.235Z,7.77
2017-08-26T02:26:17.878Z,5.87
2017-08-26T02:28:45.574Z,6.73
2017-08-26T02:31:13.271Z,5.60
2017-08-26T02:33:40.917Z,6.90
2017-08-26T02:36:08.604Z,6.33
2017-08-26T02:38:36.311Z,6.80
2017-08-26T02:41:03.950Z,6.53
2017-08-26T02:43:31.635Z,6.27
2017-08-26T02:45:59.347Z,6.47
2017-08-26T02:48:26.981Z,6.53
2017-08-26T02:50:54.667Z,7.67
2017-08-26T02:53:22.290Z,6.73
2017-08-26T02:55:49.930Z,7.30
2017-08-26T02:58:17.673Z,7.10
2017-08-26T03:00:45.318Z,6.07
2017-08-26T03:03:12.963Z,7.00
2017-08-26T03:05:40.743Z,7.60
2017-08-26T03:08:08.374Z,6.83
2017-08-26T03:10:36.001Z,7.30
2017-08-26T03:13:03.685Z,6.90
2017-08-26T03:15:31.394Z,6.93
2017-08-26T03:17:59.018Z,6.90
2017-08-26T03:20:26.900Z,6.90
2017-08-26T03:22:54.635Z,7.03
2017-08-26T03:25:22.292Z,7.10
2017-08-26T03:27:49.985Z,7.53
2017-08-26T03:30:17.673Z,6.43
2017-08-26T03:32:45.311Z,6.77
2017-08-26T03:35:13.063Z,6.23
2017-08-26T03:37:40.707Z,6.50
2017-08-26T03:40:08.368Z,6.87
2017-08-26T03:42:36.054Z,6.77
2017-08-26T03:45:03.694Z,6.47
2017-08-26T03:47:31.392Z,6.03
2017-08-26T03:49:59.140Z,6.90
2017-08-26T03:52:26.890Z,6.77
2017-08-26T03:54:54.530Z,7.57
2017-08-26T03:57:22.295Z,7.77
2017-08-26T03:59:49.945Z,8.23
2017-08-26T04:02:17.671Z,7.10
2017-08-26T04:04:45.623Z,7.80
2017-08-26T04:07:13.262Z,7.40
2017-08-26T04:09:40.899Z,5.80
2017-08-26T04:12:08.662Z,6.47
2017-08-26T04:14:36.306Z,6.70
2017-08-26T04:17:03.935Z,6.60
2017-08-26T04:19:31.700Z,7.23
2017-08-26T04:21:59.333Z,6.10
2017-08-26T04:24:26.988Z,6.80
2017-08-26T04:26:54.734Z,6.63
2017-08-26T04:29:22.379Z,7.63
2017-08-26T04:31:50.024Z,7.77
2017-08-26T04:34:17.772Z,6.23
2017-08-26T04:36:45.415Z,5.90
2017-08-26T04:39:13.046Z,6.50
2017-08-26T04:41:40.808Z,7.80
2017-08-26T04:44:08.459Z,8.90
2017-08-26T04:46:36.100Z,6.70
2017-08-26T04:49:03.882Z,5.57
2017-08-26T04:51:31.530Z,5.67
2017-08-26T04:53:59.240Z,6.40
2017-08-26T04:56:26.987Z,7.13
2017-08-26T04:58:54.634Z,7.80
2017-08-26T05:01:22.379Z,6.83
2017-08-26T05:03:50.082Z,6.93
2017-08-26T05:06:17.771Z,6.47
2017-08-26T05:08:45.414Z,6.20
2017-08-26T05:11:13.191Z,6.07
2017-08-26T05:13:40.912Z,5.13
2017-08-26T05:16:08.542Z,6.13
2017-08-26T05:18:36.310Z,6.23
2017-08-26T05:21:04.254Z,6.53
2017-08-26T05:23:32.012Z,6.10
2017-08-26T05:25:59.750Z,6.30
2017-08-26T05:28:27.389Z,6.10
2017-08-26T05:30:55.041Z,6.30
2017-08-26T05:33:22.730Z,6.10
2017-08-26T05:35:50.434Z,6.13
2017-08-26T05:38:18.179Z,6.70
2017-08-26T05:40:45.927Z,5.93
2017-08-26T05:43:13.673Z,6.07
2017-08-26T05:45:41.330Z,6.00
2017-08-26T05:48:09.169Z,6.20
2017-08-26T05:50:36.850Z,6.33
2017-08-26T05:53:04.563Z,6.23
2017-08-26T05:55:32.309Z,7.37
2017-08-26T05:58:00.057Z,7.37
2017-08-26T06:00:27.805Z,5.83
2017-08-26T06:02:55.654Z,6.80
2017-08-26T06:05:23.300Z,6.13
2017-08-26T06:07:51.046Z,5.53
2017-08-26T06:10:18.733Z,6.60
2017-08-26T06:12:46.406Z,5.40
2017-08-26T06:15:14.081Z,6.63
2017-08-26T06:17:41.757Z,6.60
2017-08-26T06:20:09.578Z,5.80
2017-08-26T06:22:37.205Z,6.20
2017-08-26T06:25:04.972Z,7.00
2017-08-26T06:27:32.602Z,5.97
2017-08-26T06:30:00.226Z,5.80
2017-08-26T06:32:28.011Z,6.27
2017-08-26T06:34:55.651Z,6.20
2017-08-26T06:37:23.273Z,5.63
2017-08-26T06:39:51.121Z,5.83
2017-08-26T06:42:18.734Z,6.40
2017-08-26T06:44:46.436Z,6.17
2017-08-26T06:47:14.185Z,6.13
2017-08-26T06:49:41.826Z,6.50
2017-08-26T06:52:09.575Z,6.50
2017-08-26T06:54:37.325Z,6.47
2017-08-26T06:57:04.969Z,6.20
2017-08-26T06:59:32.615Z,5.60
2017-08-26T07:02:00.361Z,6.77
2017-08-26T07:04:28.005Z,5.00
2017-08-26T07:06:55.650Z,6.57
2017-08-26T07:09:23.398Z,5.33
2017-08-26T07:11:51.042Z,5.43
2017-08-26T07:14:18.671Z,5.23
2017-08-26T07:16:46.435Z,5.43
2017-08-26T07:19:14.066Z,5.33
2017-08-26T07:21:41.701Z,4.90
2017-08-26T07:24:09.575Z,5.27
2017-08-26T07:26:37.205Z,5.50
2017-08-26T07:29:04.846Z,5.03
2017-08-26T07:31:32.613Z,5.20
2017-08-26T07:34:00.361Z,4.80
2017-08-26T07:36:28.108Z,5.50
2017-08-26T07:38:55.800Z,6.30
2017-08-26T07:41:23.429Z,5.03
2017-08-26T07:43:51.144Z,6.30
2017-08-26T07:46:18.834Z,5.40
2017-08-26T07:48:46.535Z,5.77
2017-08-26T07:51:14.180Z,5.33
2017-08-26T07:53:41.881Z,5.70
2017-08-26T07:56:09.575Z,5.27
2017-08-26T07:58:37.226Z,5.40
2017-08-26T08:01:04.907Z,4.67
2017-08-26T08:03:32.611Z,5.60
2017-08-26T08:06:00.237Z,5.33
2017-08-26T08:08:28.004Z,5.07
2017-08-26T08:10:55.647Z,5.47
2017-08-26T08:13:23.278Z,5.90
2017-08-26T08:15:51.041Z,5.30
2017-08-26T08:18:18.788Z,5.00
2017-08-26T08:20:46.431Z,4.57
2017-08-26T08:23:14.109Z,4.53
2017-08-26T08:25:41.824Z,5.17
2017-08-26T08:28:09.572Z,5.27
2017-08-26T08:30:37.261Z,4.80
2017-08-26T08:33:04.966Z,5.57
2017-08-26T08:35:32.713Z,5.10
2017-08-26T08:38:00.430Z,6.70
2017-08-26T08:40:28.105Z,4.47
2017-08-26T08:42:55.749Z,5.07
2017-08-26T08:45:23.497Z,4.90
2017-08-26T08:47:51.142Z,4.83
2017-08-26T08:50:18.888Z,4.50
2017-08-26T08:52:46.636Z,5.57
2017-08-26T08:55:14.268Z,5.43
2017-08-26T08:57:41.904Z,4.50
2017-08-26T09:00:09.774Z,5.07
2017-08-26T09:02:37.422Z,4.70
2017-08-26T09:05:05.055Z,4.50
2017-08-26T09:07:32.814Z,5.17
2017-08-26T09:10:00.450Z,4.43
2017-08-26T09:12:28.082Z,4.87
2017-08-26T09:14:55.953Z,5.23
2017-08-26T09:17:23.597Z,5.40
2017-08-26T09:19:51.242Z,4.43
2017-08-26T09:22:18.937Z,4.60
2017-08-26T09:24:46.634Z,5.20
2017-08-26T09:27:14.278Z,5.33
2017-08-26T09:29:42.026Z,4.60
2017-08-26T09:32:09.650Z,5.20
2017-08-26T09:34:37.318Z,5.97
2017-08-26T09:37:05.067Z,4.90
2017-08-26T09:39:32.812Z,6.33
2017-08-26T09:42:00.457Z,6.03
2017-08-26T09:44:28.205Z,7.73
2017-08-26T09:46:55.837Z,6.10
2017-08-26T09:49:23.526Z,17.93
2017-08-26T09:51:51.344Z,24.33
2017-08-26T09:54:19.058Z,6.30
2017-08-26T09:56:46.736Z,60.33
2017-08-26T09:59:14.483Z,62.53
2017-08-26T10:01:42.230Z,22.57
2017-08-26T10:04:09.874Z,6.43
2017-08-26T10:06:37.570Z,5.27
2017-08-26T10:09:05.269Z,4.90
2017-08-26T10:11:32.916Z,4.30
2017-08-26T10:14:00.590Z,6.73
2017-08-26T10:16:28.306Z,4.80
2017-08-26T10:18:56.053Z,4.60
2017-08-26T10:21:23.800Z,5.80
2017-08-26T10:23:51.444Z,5.07
2017-08-26T10:26:19.070Z,5.00
2017-08-26T10:28:46.763Z,5.10
2017-08-26T10:31:14.482Z,5.50
2017-08-26T10:33:42.234Z,4.60
2017-08-26T10:36:10.050Z,4.33
2017-08-26T10:38:37.828Z,5.30
2017-08-26T10:41:05.575Z,4.20
2017-08-26T10:43:33.298Z,5.47
2017-08-26T10:46:00.969Z,4.60
2017-08-26T10:48:28.714Z,4.77
2017-08-26T10:50:56.460Z,5.20
2017-08-26T10:53:24.101Z,5.40
2017-08-26T10:55:51.750Z,4.97
2017-08-26T10:58:19.497Z,5.40
2017-08-26T11:00:47.122Z,4.50
2017-08-26T11:03:14.787Z,4.80
2017-08-26T11:05:42.534Z,4.90
2017-08-26T11:08:10.178Z,5.13
2017-08-26T11:10:37.826Z,5.37
2017-08-26T11:13:05.521Z,4.67
2017-08-26T11:15:33.158Z,4.80
2017-08-26T11:18:00.863Z,4.57
2017-08-26T11:20:28.557Z,5.00
2017-08-26T11:22:56.460Z,4.97
2017-08-26T11:25:24.104Z,4.20
2017-08-26T11:27:51.854Z,4.70
2017-08-26T11:30:19.496Z,5.40
2017-08-26T11:32:47.254Z,4.83
2017-08-26T11:35:14.990Z,5.50
2017-08-26T11:37:42.617Z,4.97
2017-08-26T11:40:10.257Z,5.30
2017-08-26T11:42:38.030Z,4.83
2017-08-26T11:45:05.777Z,4.70
2017-08-26T11:47:33.423Z,5.43
2017-08-26T11:50:01.113Z,5.13
2017-08-26T11:52:28.814Z,4.87
2017-08-26T11:54:56.457Z,4.90
2017-08-26T11:57:24.206Z,5.10
2017-08-26T11:59:51.952Z,4.30
2017-08-26T12:02:19.700Z,4.47
2017-08-26T12:04:47.447Z,5.03
2017-08-26T12:07:15.082Z,4.23
2017-08-26T12:09:42.738Z,4.00
2017-08-26T12:12:10.586Z,5.17
2017-08-26T12:14:38.235Z,4.33
2017-08-26T12:17:05.883Z,3.70
2017-08-26T12:19:33.602Z,4.10
2017-08-26T12:22:01.271Z,4.50
2017-08-26T12:24:28.915Z,4.00
2017-08-26T12:26:56.602Z,5.03
2017-08-26T12:29:24.243Z,8.80
2017-08-26T12:31:51.951Z,4.47
2017-08-26T12:34:19.902Z,4.20
2017-08-26T12:36:47.548Z,3.80
2017-08-26T12:39:15.193Z,5.03
2017-08-26T12:41:42.939Z,4.73
2017-08-26T12:44:10.687Z,4.40
2017-08-26T12:46:38.334Z,4.03
2017-08-26T12:49:06.082Z,3.97
2017-08-26T12:51:33.717Z,3.50
2017-08-26T12:54:01.354Z,3.10
2017-08-26T12:56:29.119Z,4.07
2017-08-26T12:58:56.765Z,3.77
2017-08-26T13:01:24.407Z,3.40
2017-08-26T13:03:52.155Z,3.57
2017-08-26T13:06:19.801Z,3.83
2017-08-26T13:08:47.445Z,4.23
2017-08-26T13:11:15.192Z,3.73
2017-08-26T13:13:42.838Z,4.63
2017-08-26T13:16:10.584Z,4.30
2017-08-26T13:18:38.334Z,4.03
2017-08-26T13:21:05.974Z,3.70
2017-08-26T13:23:33.604Z,4.07
2017-08-26T13:26:01.370Z,3.70
2017-08-26T13:28:29.118Z,3.43
2017-08-26T13:30:56.754Z,4.87
2017-08-26T13:33:24.510Z,3.77
2017-08-26T13:35:52.257Z,4.10
2017-08-26T13:38:20.004Z,4.10
2017-08-26T13:40:47.939Z,3.77
2017-08-26T13:43:15.599Z,4.43
2017-08-26T13:45:43.230Z,3.60
2017-08-26T13:48:11.096Z,4.53
2017-08-26T13:50:38.742Z,3.60
2017-08-26T13:53:06.386Z,4.50
2017-08-26T13:55:34.237Z,3.80
2017-08-26T13:58:01.880Z,4.40
2017-08-26T14:00:29.525Z,5.07
2017-08-26T14:02:57.274Z,4.07
2017-08-26T14:05:25.020Z,4.77
2017-08-26T14:07:52.767Z,4.30
2017-08-26T14:10:20.515Z,3.60
2017-08-26T14:12:48.162Z,4.00
2017-08-26T14:15:15.906Z,3.50
2017-08-26T14:17:43.613Z,4.97
2017-08-26T14:20:11.245Z,4.10
2017-08-26T14:22:38.946Z,4.07
2017-08-26T14:25:06.693Z,3.97
2017-08-26T14:27:34.335Z,4.30
2017-08-26T14:30:01.983Z,4.70
2017-08-26T14:32:29.729Z,4.13
2017-08-26T14:34:57.480Z,4.70
2017-08-26T14:37:25.224Z,4.40
2017-08-26T14:39:53.011Z,4.13
2017-08-26T14:42:20.718Z,4.67
2017-08-26T14:44:48.361Z,3.73
2017-08-26T14:47:16.109Z,3.67
2017-08-26T14:49:43.758Z,4.10
2017-08-26T14:52:11.502Z,4.43
2017-08-26T14:54:39.182Z,5.37
2017-08-26T14:57:06.897Z,3.83
2017-08-26T14:59:34.643Z,4.60
2017-08-26T15:02:02.391Z,4.10
2017-08-26T15:04:30.035Z,4.53
2017-08-26T15:06:57.681Z,3.70
2017-08-26T15:09:25.530Z,4.70
2017-08-26T15:11:53.162Z,5.30
2017-08-26T15:14:20.818Z,3.83
2017-08-26T15:16:48.567Z,4.57
2017-08-26T15:19:16.202Z,4.00
2017-08-26T15:21:43.855Z,4.87
2017-08-26T15:24:11.605Z,4.60
2017-08-26T15:26:39.251Z,5.10
2017-08-26T15:29:06.895Z,4.53
2017-08-26T15:31:34.745Z,4.27
2017-08-26T15:34:02.391Z,4.57
2017-08-26T15:36:30.137Z,4.63
2017-08-26T15:38:57.883Z,4.70
2017-08-26T15:41:25.527Z,3.60
2017-08-26T15:43:53.172Z,4.00
2017-08-26T15:46:20.859Z,4.40
2017-08-26T15:48:48.565Z,4.60
2017-08-26T15:51:16.197Z,4.50
2017-08-26T15:53:43.956Z,4.30
2017-08-26T15:56:11.706Z,3.97
2017-08-26T15:58:39.555Z,4.80
2017-08-26T16:01:07.406Z,5.63
2017-08-26T16:03:35.051Z,5.30
2017-08-26T16:06:02.696Z,4.50
2017-08-26T16:08:30.544Z,4.70
2017-08-26T16:10:58.188Z,5.87
2017-08-26T16:13:25.834Z,4.40
2017-08-26T16:15:53.581Z,4.40
2017-08-26T16:18:21.226Z,4.53
2017-08-26T16:20:48.869Z,5.10
2017-08-26T16:23:16.618Z,5.10
2017-08-26T16:25:44.365Z,4.70
2017-08-26T16:28:12.009Z,5.27
2017-08-26T16:30:39.755Z,4.80
2017-08-26T16:33:07.406Z,4.77
2017-08-26T16:35:35.151Z,4.80
2017-08-26T16:38:02.898Z,4.50
2017-08-26T16:40:30.526Z,4.80
2017-08-26T16:42:58.186Z,4.90
2017-08-26T16:45:25.881Z,4.27
2017-08-26T16:47:53.580Z,4.70
2017-08-26T16:50:21.215Z,4.60
2017-08-26T16:52:48.906Z,5.07
2017-08-26T16:55:16.616Z,4.97
2017-08-26T16:57:44.260Z,5.23
2017-08-26T17:00:11.978Z,4.53
2017-08-26T17:02:39.657Z,4.83
2017-08-26T17:05:07.286Z,5.27
2017-08-26T17:07:35.047Z,5.57
2017-08-26T17:10:02.691Z,5.30
2017-08-26T17:12:30.439Z,6.47
2017-08-26T17:14:58.289Z,6.50
2017-08-26T17:17:25.967Z,5.93
2017-08-26T17:19:53.682Z,6.57
2017-08-26T17:22:21.459Z,7.13
2017-08-26T17:24:49.175Z,7.87
2017-08-26T17:27:16.922Z,8.53
2017-08-26T17:29:44.771Z,7.47
2017-08-26T17:32:12.522Z,5.63
2017-08-26T17:34:40.163Z,6.63
2017-08-26T17:37:07.913Z,5.63
2017-08-26T17:39:35.557Z,5.60
2017-08-26T17:42:03.305Z,5.43
2017-08-26T17:44:31.257Z,7.10
2017-08-26T17:46:58.881Z,5.23
2017-08-26T17:49:26.547Z,5.03
2017-08-26T17:51:54.294Z,9.23
2017-08-26T17:54:22.041Z,7.17
2017-08-26T17:56:49.686Z,6.97
2017-08-26T17:59:17.432Z,6.73
2017-08-26T18:01:45.070Z,5.40
2017-08-26T18:04:12.701Z,5.80
2017-08-26T18:06:40.474Z,6.77
2017-08-26T18:09:08.103Z,6.10
2017-08-26T18:11:35.766Z,6.00
2017-08-26T18:14:03.508Z,6.20
2017-08-26T18:16:31.153Z,5.30
2017-08-26T18:18:58.786Z,5.77
2017-08-26T18:21:26.647Z,9.20
2017-08-26T18:23:54.395Z,6.97
2017-08-26T18:26:22.038Z,6.77
2017-08-26T18:28:49.813Z,5.90
2017-08-26T18:31:17.533Z,6.10
2017-08-26T18:33:45.178Z,5.63
2017-08-26T18:36:12.885Z,5.80
2017-08-26T18:38:40.570Z,6.47
2017-08-26T18:41:08.202Z,6.17
2017-08-26T18:43:35.906Z,6.80
2017-08-26T18:46:03.610Z,7.30
2017-08-26T18:48:31.357Z,7.17
2017-08-26T18:50:59.109Z,8.10
2017-08-26T18:53:26.851Z,9.33
2017-08-26T18:55:54.599Z,9.70
2017-08-26T18:58:22.455Z,14.20
2017-08-26T19:00:50.194Z,12.80
2017-08-26T19:03:17.944Z,9.30
2017-08-26T19:05:45.642Z,8.30
2017-08-26T19:08:13.336Z,9.27
2017-08-26T19:10:41.085Z,11.50
2017-08-26T19:13:08.839Z,11.53
2017-08-26T19:15:36.578Z,7.60
2017-08-26T19:18:04.327Z,7.80
2017-08-26T19:20:32.018Z,7.20
2017-08-26T19:22:59.716Z,7.60
2017-08-26T19:25:27.467Z,7.00
2017-08-26T19:27:55.210Z,6.07
2017-08-26T19:30:22.855Z,7.10
2017-08-26T19:32:50.499Z,7.57
2017-08-26T19:35:18.350Z,9.03
2017-08-26T19:37:45.990Z,7.20
2017-08-26T19:40:13.742Z,8.20
2017-08-26T19:42:41.430Z,6.73
2017-08-26T19:45:09.137Z,6.97
2017-08-26T19:47:36.884Z,7.20
2017-08-26T19:50:04.577Z,7.23
2017-08-26T19:52:32.276Z,6.27
2017-08-26T19:54:59.945Z,6.27
2017-08-26T19:57:27.634Z,7.77
2017-08-26T19:59:55.313Z,8.10
2017-08-26T20:02:23.060Z,7.53
2017-08-26T20:04:50.780Z,7.07
2017-08-26T20:07:18.422Z,7.43
2017-08-26T20:09:46.199Z,7.60
2017-08-26T20:12:13.911Z,6.30
2017-08-26T20:14:41.596Z,6.77
2017-08-26T20:17:09.343Z,7.03
2017-08-26T20:19:37.095Z,7.80
2017-08-26T20:22:04.732Z,6.43
2017-08-26T20:24:32.396Z,6.87
2017-08-26T20:27:00.126Z,6.97
2017-08-26T20:29:27.763Z,7.23
2017-08-26T20:31:55.413Z,6.60
2017-08-26T20:34:23.117Z,6.77
2017-08-26T20:36:50.790Z,6.17
2017-08-26T20:39:18.462Z,6.87
2017-08-26T20:41:46.201Z,7.90
2017-08-26T20:44:13.851Z,6.83
2017-08-26T20:46:41.590Z,7.57
2017-08-26T20:49:09.287Z,6.70
2017-08-26T20:51:36.929Z,6.63
2017-08-26T20:54:04.559Z,6.00
2017-08-26T20:56:32.297Z,6.50
2017-08-26T20:58:59.982Z,6.30
2017-08-26T21:01:27.769Z,6.77
2017-08-26T21:03:55.619Z,7.40
2017-08-26T21:06:23.365Z,6.57
2017-08-26T21:08:51.112Z,6.90
2017-08-26T21:11:18.801Z,7.30
2017-08-26T21:13:46.504Z,7.30
2017-08-26T21:16:14.250Z,6.50
2017-08-26T21:18:42.000Z,6.50
2017-08-26T21:21:09.744Z,6.93
2017-08-26T21:23:37.388Z,7.60
2017-08-26T21:26:05.078Z,7.60
2017-08-26T21:28:32.724Z,6.23
2017-08-26T21:31:00.370Z,7.13
2017-08-26T21:33:28.073Z,6.17
2017-08-26T21:35:55.722Z,6.70
2017-08-26T21:38:23.671Z,6.83
2017-08-26T21:40:51.415Z,6.30
2017-08-26T21:43:19.165Z,6.20
2017-08-26T21:45:46.911Z,5.77
2017-08-26T21:48:14.697Z,7.07
2017-08-26T21:50:42.408Z,6.57
2017-08-26T21:53:10.153Z,6.43
2017-08-26T21:55:38.004Z,6.20
2017-08-26T21:58:05.651Z,5.67
2017-08-26T22:00:33.399Z,6.60
2017-08-26T22:03:01.110Z,6.53
2017-08-26T22:05:28.789Z,7.40
2017-08-26T22:07:56.538Z,5.67
2017-08-26T22:10:24.388Z,5.73
2017-08-26T22:12:52.133Z,4.60
2017-08-26T22:15:19.823Z,5.47
2017-08-26T22:17:47.510Z,6.40
2017-08-26T22:20:15.140Z,5.33
2017-08-26T22:22:42.815Z,5.77
2017-08-26T22:25:10.561Z,6.30
2017-08-26T22:27:38.203Z,6.33
2017-08-26T22:30:05.858Z,5.83
2017-08-26T22:32:33.553Z,5.30
2017-08-26T22:35:01.181Z,5.13
2017-08-26T22:37:28.890Z,5.47
2017-08-26T22:39:56.577Z,6.10
2017-08-26T22:42:24.205Z,5.40
2017-08-26T22:44:51.927Z,6.13
2017-08-26T22:47:19.615Z,5.00
2017-08-26T22:49:47.318Z,5.30
2017-08-26T22:52:15.066Z,5.90
2017-08-26T22:54:42.814Z,7.33
2017-08-26T22:57:10.458Z,5.10
2017-08-26T22:59:38.106Z,6.73
2017-08-26T23:02:05.894Z,5.23
2017-08-26T23:04:34.457Z,5.13
2017-08-26T23:07:02.085Z,4.87
2017-08-26T23:09:29.811Z,5.20
2017-08-26T23:11:57.452Z,5.07
2017-08-26T23:14:25.086Z,4.57
2017-08-26T23:16:52.849Z,5.23
2017-08-26T23:19:20.482Z,4.80
2017-08-26T23:21:48.114Z,4.80
2017-08-26T23:24:15.884Z,5.23
2017-08-26T23:26:43.631Z,5.17
2017-08-26T23:29:11.258Z,5.67
2017-08-26T23:31:38.955Z,5.17
2017-08-26T23:34:06.614Z,6.00
2017-08-26T23:36:34.246Z,5.30
2017-08-26T23:39:01.962Z,5.60
2017-08-26T23:41:29.634Z,5.60
2017-08-26T23:43:57.284Z,5.27
2017-08-26T23:46:24.998Z,5.97
2017-08-26T23:48:52.745Z,5.40
2017-08-26T23:51:20.387Z,4.80
2017-08-26T23:53:48.067Z,4.13
2017-08-26T23:56:15.706Z,5.80
2017-08-26T23:58:43.350Z,4.90
